METAR Formatted Surface Weather Observation
Issued by NWS Honolulu, HI

Home | Current Version | Previous Version | Text Only | Print | Product List | Glossary On
Versions: 1 2 3 4 5 6 7 8 9 10
000
SAHW31 PHFO 251455
MTRITO
METAR PHTO 251453Z 23007KT 10SM CLR 18/13 A3019 RMK AO2 SLP222
T01830128 55000


USA.gov is the U.S. government's official web portal to all federal, state and local government web resources and services.